sensor_id;sensor_type;location;lat;lon;timestamp;P1;durP1;ratioP1;P2;durP2;ratioP2
46731;SDS011;32477;51.474;5.696;2024-02-26T00:00:03;9.43;;;3.67;;
46731;SDS011;32477;51.474;5.696;2024-02-26T00:02:30;8.00;;;2.80;;
46731;SDS011;32477;51.474;5.696;2024-02-26T00:04:57;7.93;;;3.03;;
46731;SDS011;32477;51.474;5.696;2024-02-26T00:07:22;9.00;;;3.22;;
46731;SDS011;32477;51.474;5.696;2024-02-26T00:09:48;10.20;;;2.70;;
46731;SDS011;32477;51.474;5.696;2024-02-26T00:12:13;10.13;;;3.38;;
46731;SDS011;32477;51.474;5.696;2024-02-26T00:14:39;5.68;;;2.55;;
46731;SDS011;32477;51.474;5.696;2024-02-26T00:17:06;9.77;;;3.40;;
46731;SDS011;32477;51.474;5.696;2024-02-26T00:19:31;9.23;;;3.10;;
46731;SDS011;32477;51.474;5.696;2024-02-26T00:21:57;9.30;;;3.03;;
46731;SDS011;32477;51.474;5.696;2024-02-26T00:24:23;11.18;;;2.72;;
46731;SDS011;32477;51.474;5.696;2024-02-26T00:26:48;9.77;;;3.63;;
46731;SDS011;32477;51.474;5.696;2024-02-26T00:29:18;8.80;;;2.97;;
46731;SDS011;32477;51.474;5.696;2024-02-26T00:31:44;5.53;;;2.75;;
46731;SDS011;32477;51.474;5.696;2024-02-26T00:34:09;6.68;;;2.97;;
46731;SDS011;32477;51.474;5.696;2024-02-26T00:36:35;8.60;;;3.17;;
46731;SDS011;32477;51.474;5.696;2024-02-26T00:39:01;6.15;;;2.58;;
46731;SDS011;32477;51.474;5.696;2024-02-26T00:41:28;7.15;;;3.13;;
46731;SDS011;32477;51.474;5.696;2024-02-26T00:43:54;5.93;;;3.08;;
46731;SDS011;32477;51.474;5.696;2024-02-26T00:46:19;7.55;;;3.25;;
46731;SDS011;32477;51.474;5.696;2024-02-26T00:48:45;10.13;;;3.30;;
46731;SDS011;32477;51.474;5.696;2024-02-26T00:51:10;5.05;;;2.70;;
46731;SDS011;32477;51.474;5.696;2024-02-26T00:53:36;9.88;;;3.00;;
46731;SDS011;32477;51.474;5.696;2024-02-26T00:56:02;7.45;;;3.40;;
46731;SDS011;32477;51.474;5.696;2024-02-26T00:58:28;5.28;;;2.75;;
46731;SDS011;32477;51.474;5.696;2024-02-26T01:00:53;8.13;;;2.40;;
46731;SDS011;32477;51.474;5.696;2024-02-26T01:03:19;5.25;;;2.63;;
46731;SDS011;32477;51.474;5.696;2024-02-26T01:05:45;10.68;;;3.00;;
46731;SDS011;32477;51.474;5.696;2024-02-26T01:08:11;6.05;;;2.80;;
46731;SDS011;32477;51.474;5.696;2024-02-26T01:10:36;4.50;;;2.83;;
46731;SDS011;32477;51.474;5.696;2024-02-26T01:13:02;5.05;;;2.55;;
46731;SDS011;32477;51.474;5.696;2024-02-26T01:15:28;5.18;;;2.78;;
46731;SDS011;32477;51.474;5.696;2024-02-26T01:17:53;3.92;;;2.40;;
46731;SDS011;32477;51.474;5.696;2024-02-26T01:20:20;7.63;;;2.92;;
46731;SDS011;32477;51.474;5.696;2024-02-26T01:22:46;4.75;;;2.65;;
46731;SDS011;32477;51.474;5.696;2024-02-26T01:25:12;4.30;;;2.10;;
46731;SDS011;32477;51.474;5.696;2024-02-26T01:27:38;7.10;;;2.83;;
46731;SDS011;32477;51.474;5.696;2024-02-26T01:30:04;5.25;;;3.13;;
46731;SDS011;32477;51.474;5.696;2024-02-26T01:32:31;4.80;;;2.70;;
46731;SDS011;32477;51.474;5.696;2024-02-26T01:34:56;5.78;;;3.58;;
46731;SDS011;32477;51.474;5.696;2024-02-26T01:37:22;6.43;;;2.97;;
46731;SDS011;32477;51.474;5.696;2024-02-26T01:39:48;7.80;;;3.17;;
46731;SDS011;32477;51.474;5.696;2024-02-26T01:42:13;4.85;;;2.50;;
46731;SDS011;32477;51.474;5.696;2024-02-26T01:44:39;7.10;;;3.08;;
46731;SDS011;32477;51.474;5.696;2024-02-26T01:47:08;5.85;;;3.00;;
46731;SDS011;32477;51.474;5.696;2024-02-26T01:49:36;4.80;;;2.58;;
46731;SDS011;32477;51.474;5.696;2024-02-26T01:52:04;6.35;;;3.13;;
46731;SDS011;32477;51.474;5.696;2024-02-26T01:54:31;4.18;;;2.70;;
46731;SDS011;32477;51.474;5.696;2024-02-26T01:57:00;4.88;;;2.78;;
46731;SDS011;32477;51.474;5.696;2024-02-26T01:59:26;6.95;;;3.03;;
46731;SDS011;32477;51.474;5.696;2024-02-26T02:01:52;7.50;;;2.95;;
46731;SDS011;32477;51.474;5.696;2024-02-26T02:04:23;5.95;;;2.88;;
46731;SDS011;32477;51.474;5.696;2024-02-26T02:06:49;5.00;;;3.03;;
46731;SDS011;32477;51.474;5.696;2024-02-26T02:09:15;7.18;;;3.35;;
46731;SDS011;32477;51.474;5.696;2024-02-26T02:11:41;11.65;;;3.30;;
46731;SDS011;32477;51.474;5.696;2024-02-26T02:14:07;5.75;;;3.22;;
46731;SDS011;32477;51.474;5.696;2024-02-26T02:16:32;5.47;;;3.20;;
46731;SDS011;32477;51.474;5.696;2024-02-26T02:18:58;7.40;;;3.03;;
46731;SDS011;32477;51.474;5.696;2024-02-26T02:21:24;5.35;;;3.05;;
46731;SDS011;32477;51.474;5.696;2024-02-26T02:23:50;5.65;;;2.97;;
46731;SDS011;32477;51.474;5.696;2024-02-26T02:26:15;4.65;;;3.40;;
46731;SDS011;32477;51.474;5.696;2024-02-26T02:28:42;5.88;;;3.15;;
46731;SDS011;32477;51.474;5.696;2024-02-26T02:31:08;6.40;;;3.58;;
46731;SDS011;32477;51.474;5.696;2024-02-26T02:33:34;5.53;;;3.13;;
46731;SDS011;32477;51.474;5.696;2024-02-26T02:36:00;7.03;;;3.67;;
46731;SDS011;32477;51.474;5.696;2024-02-26T02:38:26;5.78;;;3.38;;
46731;SDS011;32477;51.474;5.696;2024-02-26T02:40:54;7.50;;;3.67;;
46731;SDS011;32477;51.474;5.696;2024-02-26T02:43:20;5.72;;;3.42;;
46731;SDS011;32477;51.474;5.696;2024-02-26T02:45:45;6.47;;;3.45;;
46731;SDS011;32477;51.474;5.696;2024-02-26T02:48:11;5.63;;;3.45;;
46731;SDS011;32477;51.474;5.696;2024-02-26T02:50:37;8.48;;;3.63;;
46731;SDS011;32477;51.474;5.696;2024-02-26T02:53:03;5.07;;;3.35;;
46731;SDS011;32477;51.474;5.696;2024-02-26T02:55:28;6.38;;;3.15;;
46731;SDS011;32477;51.474;5.696;2024-02-26T02:57:54;6.63;;;3.88;;
46731;SDS011;32477;51.474;5.696;2024-02-26T03:00:20;5.35;;;3.53;;
46731;SDS011;32477;51.474;5.696;2024-02-26T03:02:47;4.70;;;3.35;;
46731;SDS011;32477;51.474;5.696;2024-02-26T03:05:13;6.40;;;3.65;;
46731;SDS011;32477;51.474;5.696;2024-02-26T03:07:39;5.68;;;3.03;;
46731;SDS011;32477;51.474;5.696;2024-02-26T03:10:05;7.10;;;3.83;;
46731;SDS011;32477;51.474;5.696;2024-02-26T03:12:31;4.75;;;3.13;;
46731;SDS011;32477;51.474;5.696;2024-02-26T03:14:57;4.93;;;3.30;;
46731;SDS011;32477;51.474;5.696;2024-02-26T03:17:22;6.07;;;3.45;;
46731;SDS011;32477;51.474;5.696;2024-02-26T03:19:49;11.27;;;4.28;;
46731;SDS011;32477;51.474;5.696;2024-02-26T03:22:18;5.75;;;3.33;;
46731;SDS011;32477;51.474;5.696;2024-02-26T03:24:44;7.32;;;3.53;;
46731;SDS011;32477;51.474;5.696;2024-02-26T03:27:10;5.75;;;3.63;;
46731;SDS011;32477;51.474;5.696;2024-02-26T03:29:36;8.35;;;3.90;;
46731;SDS011;32477;51.474;5.696;2024-02-26T03:32:02;6.45;;;3.53;;
46731;SDS011;32477;51.474;5.696;2024-02-26T03:34:28;6.05;;;3.20;;
46731;SDS011;32477;51.474;5.696;2024-02-26T03:36:55;5.45;;;3.10;;
46731;SDS011;32477;51.474;5.696;2024-02-26T03:39:22;5.40;;;3.25;;
46731;SDS011;32477;51.474;5.696;2024-02-26T03:41:47;6.43;;;3.70;;
46731;SDS011;32477;51.474;5.696;2024-02-26T03:44:13;4.82;;;2.83;;
46731;SDS011;32477;51.474;5.696;2024-02-26T03:46:39;6.38;;;3.53;;
46731;SDS011;32477;51.474;5.696;2024-02-26T03:49:07;4.57;;;3.40;;
46731;SDS011;32477;51.474;5.696;2024-02-26T03:51:33;6.43;;;2.88;;
46731;SDS011;32477;51.474;5.696;2024-02-26T03:53:59;5.32;;;3.60;;
46731;SDS011;32477;51.474;5.696;2024-02-26T03:56:25;7.10;;;3.65;;
46731;SDS011;32477;51.474;5.696;2024-02-26T03:58:51;5.30;;;3.45;;
46731;SDS011;32477;51.474;5.696;2024-02-26T04:01:17;9.80;;;3.78;;
46731;SDS011;32477;51.474;5.696;2024-02-26T04:03:43;5.53;;;3.80;;
46731;SDS011;32477;51.474;5.696;2024-02-26T04:06:09;6.25;;;3.30;;
46731;SDS011;32477;51.474;5.696;2024-02-26T04:08:46;3.28;;;2.67;;
46731;SDS011;32477;51.474;5.696;2024-02-26T04:11:12;7.90;;;3.42;;
46731;SDS011;32477;51.474;5.696;2024-02-26T04:13:37;5.10;;;3.10;;
46731;SDS011;32477;51.474;5.696;2024-02-26T04:16:06;6.70;;;3.53;;
46731;SDS011;32477;51.474;5.696;2024-02-26T04:18:32;10.50;;;4.10;;
46731;SDS011;32477;51.474;5.696;2024-02-26T04:20:58;5.15;;;3.92;;
46731;SDS011;32477;51.474;5.696;2024-02-26T04:23:24;10.50;;;4.32;;
46731;SDS011;32477;51.474;5.696;2024-02-26T04:25:50;6.22;;;4.05;;
46731;SDS011;32477;51.474;5.696;2024-02-26T04:28:18;7.20;;;4.10;;
46731;SDS011;32477;51.474;5.696;2024-02-26T04:30:45;9.32;;;4.15;;
46731;SDS011;32477;51.474;5.696;2024-02-26T04:33:12;6.13;;;3.95;;
46731;SDS011;32477;51.474;5.696;2024-02-26T04:35:37;5.30;;;3.85;;
46731;SDS011;32477;51.474;5.696;2024-02-26T04:38:03;7.07;;;4.10;;
46731;SDS011;32477;51.474;5.696;2024-02-26T04:40:28;7.80;;;4.47;;
46731;SDS011;32477;51.474;5.696;2024-02-26T04:42:54;6.97;;;4.15;;
46731;SDS011;32477;51.474;5.696;2024-02-26T04:45:20;9.15;;;4.55;;
46731;SDS011;32477;51.474;5.696;2024-02-26T04:47:45;7.32;;;4.15;;
46731;SDS011;32477;51.474;5.696;2024-02-26T04:50:11;7.70;;;4.60;;
46731;SDS011;32477;51.474;5.696;2024-02-26T04:52:37;9.35;;;4.95;;
46731;SDS011;32477;51.474;5.696;2024-02-26T04:55:03;7.32;;;4.32;;
46731;SDS011;32477;51.474;5.696;2024-02-26T04:57:29;7.38;;;4.97;;
46731;SDS011;32477;51.474;5.696;2024-02-26T04:59:54;10.85;;;5.38;;
46731;SDS011;32477;51.474;5.696;2024-02-26T05:02:20;8.55;;;4.65;;
46731;SDS011;32477;51.474;5.696;2024-02-26T05:04:46;7.10;;;4.75;;
46731;SDS011;32477;51.474;5.696;2024-02-26T05:07:11;9.77;;;5.57;;
46731;SDS011;32477;51.474;5.696;2024-02-26T05:09:37;7.95;;;4.68;;
46731;SDS011;32477;51.474;5.696;2024-02-26T05:12:03;7.35;;;4.47;;
46731;SDS011;32477;51.474;5.696;2024-02-26T05:14:29;11.10;;;5.05;;
46731;SDS011;32477;51.474;5.696;2024-02-26T05:16:54;7.63;;;4.30;;
46731;SDS011;32477;51.474;5.696;2024-02-26T05:19:21;7.40;;;4.53;;
46731;SDS011;32477;51.474;5.696;2024-02-26T05:21:46;9.15;;;4.60;;
46731;SDS011;32477;51.474;5.696;2024-02-26T05:24:14;7.72;;;4.35;;
46731;SDS011;32477;51.474;5.696;2024-02-26T05:26:40;5.72;;;4.05;;
46731;SDS011;32477;51.474;5.696;2024-02-26T05:29:06;6.75;;;4.30;;
46731;SDS011;32477;51.474;5.696;2024-02-26T05:31:31;9.60;;;4.55;;
46731;SDS011;32477;51.474;5.696;2024-02-26T05:33:57;7.13;;;4.32;;
46731;SDS011;32477;51.474;5.696;2024-02-26T05:36:23;6.18;;;4.28;;
46731;SDS011;32477;51.474;5.696;2024-02-26T05:38:49;5.60;;;4.00;;
46731;SDS011;32477;51.474;5.696;2024-02-26T05:41:15;7.18;;;4.00;;
46731;SDS011;32477;51.474;5.696;2024-02-26T05:43:41;6.68;;;4.40;;
46731;SDS011;32477;51.474;5.696;2024-02-26T05:46:07;10.93;;;4.70;;
46731;SDS011;32477;51.474;5.696;2024-02-26T05:48:33;8.52;;;4.50;;
46731;SDS011;32477;51.474;5.696;2024-02-26T05:50:59;6.78;;;4.03;;
46731;SDS011;32477;51.474;5.696;2024-02-26T05:53:24;7.07;;;4.25;;
46731;SDS011;32477;51.474;5.696;2024-02-26T05:55:50;6.40;;;4.03;;
46731;SDS011;32477;51.474;5.696;2024-02-26T05:58:16;5.57;;;3.80;;
46731;SDS011;32477;51.474;5.696;2024-02-26T06:00:41;7.00;;;4.00;;
46731;SDS011;32477;51.474;5.696;2024-02-26T06:03:07;8.88;;;4.25;;
46731;SDS011;32477;51.474;5.696;2024-02-26T06:05:32;6.47;;;4.05;;
46731;SDS011;32477;51.474;5.696;2024-02-26T06:07:58;7.32;;;4.13;;
46731;SDS011;32477;51.474;5.696;2024-02-26T06:10:24;9.13;;;4.13;;
46731;SDS011;32477;51.474;5.696;2024-02-26T06:12:49;11.63;;;4.43;;
46731;SDS011;32477;51.474;5.696;2024-02-26T06:15:15;6.78;;;3.90;;
46731;SDS011;32477;51.474;5.696;2024-02-26T06:17:40;5.97;;;4.03;;
46731;SDS011;32477;51.474;5.696;2024-02-26T06:20:07;7.90;;;4.38;;
46731;SDS011;32477;51.474;5.696;2024-02-26T06:22:36;6.78;;;4.32;;
46731;SDS011;32477;51.474;5.696;2024-02-26T06:25:02;6.80;;;4.00;;
46731;SDS011;32477;51.474;5.696;2024-02-26T06:27:28;5.85;;;4.10;;
46731;SDS011;32477;51.474;5.696;2024-02-26T06:29:53;6.78;;;4.00;;
46731;SDS011;32477;51.474;5.696;2024-02-26T06:32:19;6.78;;;4.35;;
46731;SDS011;32477;51.474;5.696;2024-02-26T06:34:44;6.55;;;4.22;;
46731;SDS011;32477;51.474;5.696;2024-02-26T06:37:10;5.45;;;3.70;;
46731;SDS011;32477;51.474;5.696;2024-02-26T06:39:36;6.50;;;3.42;;
46731;SDS011;32477;51.474;5.696;2024-02-26T06:42:03;10.50;;;3.97;;
46731;SDS011;32477;51.474;5.696;2024-02-26T06:44:28;8.10;;;4.47;;
46731;SDS011;32477;51.474;5.696;2024-02-26T06:46:57;7.50;;;4.80;;
46731;SDS011;32477;51.474;5.696;2024-02-26T06:49:24;7.32;;;4.63;;
46731;SDS011;32477;51.474;5.696;2024-02-26T06:51:49;8.93;;;4.15;;
46731;SDS011;32477;51.474;5.696;2024-02-26T06:54:15;6.97;;;4.45;;
46731;SDS011;32477;51.474;5.696;2024-02-26T06:56:40;13.88;;;5.68;;
46731;SDS011;32477;51.474;5.696;2024-02-26T06:59:06;8.18;;;5.47;;
46731;SDS011;32477;51.474;5.696;2024-02-26T07:01:32;7.97;;;4.85;;
46731;SDS011;32477;51.474;5.696;2024-02-26T07:03:57;8.77;;;5.40;;
46731;SDS011;32477;51.474;5.696;2024-02-26T07:06:23;14.52;;;6.07;;
46731;SDS011;32477;51.474;5.696;2024-02-26T07:08:48;8.23;;;4.90;;
46731;SDS011;32477;51.474;5.696;2024-02-26T07:11:14;11.57;;;6.03;;
46731;SDS011;32477;51.474;5.696;2024-02-26T07:13:39;8.98;;;5.25;;
46731;SDS011;32477;51.474;5.696;2024-02-26T07:16:05;9.95;;;5.25;;
46731;SDS011;32477;51.474;5.696;2024-02-26T07:18:31;9.68;;;6.15;;
46731;SDS011;32477;51.474;5.696;2024-02-26T07:20:56;13.00;;;5.78;;
46731;SDS011;32477;51.474;5.696;2024-02-26T07:23:22;9.02;;;6.47;;
46731;SDS011;32477;51.474;5.696;2024-02-26T07:25:48;7.28;;;5.20;;
46731;SDS011;32477;51.474;5.696;2024-02-26T07:28:15;10.80;;;6.18;;
46731;SDS011;32477;51.474;5.696;2024-02-26T07:30:41;10.68;;;5.82;;
46731;SDS011;32477;51.474;5.696;2024-02-26T07:33:06;13.50;;;6.78;;
46731;SDS011;32477;51.474;5.696;2024-02-26T07:35:32;8.60;;;5.65;;
46731;SDS011;32477;51.474;5.696;2024-02-26T07:37:58;10.43;;;5.57;;
46731;SDS011;32477;51.474;5.696;2024-02-26T07:40:24;9.75;;;6.93;;
46731;SDS011;32477;51.474;5.696;2024-02-26T07:42:49;11.82;;;6.78;;
46731;SDS011;32477;51.474;5.696;2024-02-26T07:45:15;9.27;;;6.07;;
46731;SDS011;32477;51.474;5.696;2024-02-26T07:47:42;10.65;;;6.45;;
46731;SDS011;32477;51.474;5.696;2024-02-26T07:50:08;11.10;;;6.70;;
46731;SDS011;32477;51.474;5.696;2024-02-26T07:52:34;11.32;;;6.50;;
46731;SDS011;32477;51.474;5.696;2024-02-26T07:54:59;10.35;;;6.05;;
46731;SDS011;32477;51.474;5.696;2024-02-26T07:57:25;10.02;;;5.80;;
46731;SDS011;32477;51.474;5.696;2024-02-26T07:59:51;10.75;;;5.22;;
46731;SDS011;32477;51.474;5.696;2024-02-26T08:02:17;10.18;;;6.25;;
46731;SDS011;32477;51.474;5.696;2024-02-26T08:04:43;8.38;;;5.50;;
46731;SDS011;32477;51.474;5.696;2024-02-26T08:07:08;8.95;;;5.75;;
46731;SDS011;32477;51.474;5.696;2024-02-26T08:09:34;8.70;;;4.90;;
46731;SDS011;32477;51.474;5.696;2024-02-26T08:11:59;8.07;;;4.93;;
46731;SDS011;32477;51.474;5.696;2024-02-26T08:14:25;7.18;;;4.95;;
46731;SDS011;32477;51.474;5.696;2024-02-26T08:16:51;8.48;;;5.40;;
46731;SDS011;32477;51.474;5.696;2024-02-26T08:19:16;6.55;;;4.88;;
46731;SDS011;32477;51.474;5.696;2024-02-26T08:21:42;8.98;;;5.15;;
46731;SDS011;32477;51.474;5.696;2024-02-26T08:24:08;8.63;;;4.63;;
46731;SDS011;32477;51.474;5.696;2024-02-26T08:26:33;9.25;;;5.03;;
46731;SDS011;32477;51.474;5.696;2024-02-26T08:28:59;8.50;;;5.45;;
46731;SDS011;32477;51.474;5.696;2024-02-26T08:31:25;14.18;;;5.28;;
46731;SDS011;32477;51.474;5.696;2024-02-26T08:33:50;6.35;;;4.68;;
46731;SDS011;32477;51.474;5.696;2024-02-26T08:36:16;10.23;;;4.95;;
46731;SDS011;32477;51.474;5.696;2024-02-26T08:38:41;12.07;;;5.75;;
46731;SDS011;32477;51.474;5.696;2024-02-26T08:41:07;9.38;;;4.90;;
46731;SDS011;32477;51.474;5.696;2024-02-26T08:43:32;8.15;;;5.32;;
46731;SDS011;32477;51.474;5.696;2024-02-26T08:45:58;11.02;;;5.07;;
46731;SDS011;32477;51.474;5.696;2024-02-26T08:48:24;9.77;;;6.18;;
46731;SDS011;32477;51.474;5.696;2024-02-26T08:50:49;9.30;;;5.50;;
46731;SDS011;32477;51.474;5.696;2024-02-26T08:53:15;10.18;;;5.53;;
46731;SDS011;32477;51.474;5.696;2024-02-26T08:55:40;10.80;;;5.90;;
46731;SDS011;32477;51.474;5.696;2024-02-26T08:58:06;10.15;;;5.93;;
46731;SDS011;32477;51.474;5.696;2024-02-26T09:00:31;12.60;;;6.75;;
46731;SDS011;32477;51.474;5.696;2024-02-26T09:02:57;13.65;;;6.45;;
46731;SDS011;32477;51.474;5.696;2024-02-26T09:05:23;11.75;;;6.85;;
46731;SDS011;32477;51.474;5.696;2024-02-26T09:07:48;14.65;;;6.40;;
46731;SDS011;32477;51.474;5.696;2024-02-26T09:10:14;9.70;;;6.28;;
46731;SDS011;32477;51.474;5.696;2024-02-26T09:12:39;9.98;;;6.13;;
46731;SDS011;32477;51.474;5.696;2024-02-26T09:15:06;10.45;;;6.55;;
46731;SDS011;32477;51.474;5.696;2024-02-26T09:17:32;9.05;;;5.95;;
46731;SDS011;32477;51.474;5.696;2024-02-26T09:19:58;9.90;;;6.63;;
46731;SDS011;32477;51.474;5.696;2024-02-26T09:22:23;9.30;;;5.97;;
46731;SDS011;32477;51.474;5.696;2024-02-26T09:24:49;12.15;;;6.65;;
46731;SDS011;32477;51.474;5.696;2024-02-26T09:27:16;10.55;;;6.85;;
46731;SDS011;32477;51.474;5.696;2024-02-26T09:29:42;8.75;;;6.20;;
46731;SDS011;32477;51.474;5.696;2024-02-26T09:32:08;13.05;;;6.65;;
46731;SDS011;32477;51.474;5.696;2024-02-26T09:34:33;12.65;;;6.95;;
46731;SDS011;32477;51.474;5.696;2024-02-26T09:36:59;11.50;;;6.40;;
46731;SDS011;32477;51.474;5.696;2024-02-26T09:39:25;12.48;;;6.50;;
46731;SDS011;32477;51.474;5.696;2024-02-26T09:41:52;15.00;;;6.43;;
46731;SDS011;32477;51.474;5.696;2024-02-26T09:44:19;10.45;;;6.30;;
46731;SDS011;32477;51.474;5.696;2024-02-26T09:46:48;11.02;;;6.97;;
46731;SDS011;32477;51.474;5.696;2024-02-26T09:49:16;12.00;;;6.45;;
46731;SDS011;32477;51.474;5.696;2024-02-26T09:51:43;10.90;;;6.57;;
46731;SDS011;32477;51.474;5.696;2024-02-26T09:54:09;13.65;;;7.03;;
46731;SDS011;32477;51.474;5.696;2024-02-26T09:56:36;10.75;;;6.80;;
46731;SDS011;32477;51.474;5.696;2024-02-26T09:59:04;12.05;;;7.35;;
46731;SDS011;32477;51.474;5.696;2024-02-26T10:01:35;13.50;;;7.75;;
46731;SDS011;32477;51.474;5.696;2024-02-26T10:04:04;12.15;;;6.85;;
46731;SDS011;32477;51.474;5.696;2024-02-26T10:06:31;11.23;;;7.50;;
46731;SDS011;32477;51.474;5.696;2024-02-26T10:08:56;9.50;;;6.57;;
46731;SDS011;32477;51.474;5.696;2024-02-26T10:11:23;9.63;;;6.93;;
46731;SDS011;32477;51.474;5.696;2024-02-26T10:13:50;13.82;;;6.78;;
46731;SDS011;32477;51.474;5.696;2024-02-26T10:16:16;12.98;;;7.25;;
46731;SDS011;32477;51.474;5.696;2024-02-26T10:18:48;12.00;;;6.53;;
46731;SDS011;32477;51.474;5.696;2024-02-26T10:21:15;9.65;;;6.45;;
46731;SDS011;32477;51.474;5.696;2024-02-26T10:23:43;11.38;;;7.18;;
46731;SDS011;32477;51.474;5.696;2024-02-26T10:26:10;11.98;;;6.55;;
46731;SDS011;32477;51.474;5.696;2024-02-26T10:28:37;10.32;;;6.95;;
46731;SDS011;32477;51.474;5.696;2024-02-26T10:31:04;10.57;;;7.03;;
46731;SDS011;32477;51.474;5.696;2024-02-26T10:33:31;15.43;;;6.78;;
46731;SDS011;32477;51.474;5.696;2024-02-26T10:36:05;11.30;;;6.25;;
46731;SDS011;32477;51.474;5.696;2024-02-26T10:38:32;10.48;;;6.38;;
46731;SDS011;32477;51.474;5.696;2024-02-26T10:40:59;11.40;;;5.93;;
46731;SDS011;32477;51.474;5.696;2024-02-26T10:43:27;11.88;;;6.25;;
46731;SDS011;32477;51.474;5.696;2024-02-26T10:45:56;12.18;;;6.60;;
46731;SDS011;32477;51.474;5.696;2024-02-26T10:48:22;12.80;;;7.43;;
46731;SDS011;32477;51.474;5.696;2024-02-26T10:50:48;9.48;;;6.30;;
46731;SDS011;32477;51.474;5.696;2024-02-26T10:53:16;11.80;;;7.18;;
46731;SDS011;32477;51.474;5.696;2024-02-26T10:55:43;12.20;;;6.88;;
46731;SDS011;32477;51.474;5.696;2024-02-26T10:58:13;16.05;;;6.40;;
46731;SDS011;32477;51.474;5.696;2024-02-26T11:00:39;12.43;;;7.15;;
46731;SDS011;32477;51.474;5.696;2024-02-26T11:03:05;13.15;;;7.18;;
46731;SDS011;32477;51.474;5.696;2024-02-26T11:05:34;11.13;;;7.57;;
46731;SDS011;32477;51.474;5.696;2024-02-26T11:08:01;11.48;;;6.80;;
46731;SDS011;32477;51.474;5.696;2024-02-26T11:10:29;14.23;;;7.95;;
46731;SDS011;32477;51.474;5.696;2024-02-26T11:12:55;13.75;;;8.63;;
46731;SDS011;32477;51.474;5.696;2024-02-26T11:15:24;15.82;;;8.75;;
46731;SDS011;32477;51.474;5.696;2024-02-26T11:17:51;14.52;;;7.78;;
46731;SDS011;32477;51.474;5.696;2024-02-26T11:20:18;16.10;;;8.82;;
46731;SDS011;32477;51.474;5.696;2024-02-26T11:22:44;16.20;;;10.20;;
46731;SDS011;32477;51.474;5.696;2024-02-26T11:25:10;15.60;;;9.00;;
46731;SDS011;32477;51.474;5.696;2024-02-26T11:27:43;16.52;;;9.20;;
46731;SDS011;32477;51.474;5.696;2024-02-26T11:30:14;18.98;;;9.75;;
46731;SDS011;32477;51.474;5.696;2024-02-26T11:32:43;16.13;;;9.65;;
46731;SDS011;32477;51.474;5.696;2024-02-26T11:35:12;15.88;;;9.18;;
46731;SDS011;32477;51.474;5.696;2024-02-26T11:37:40;17.33;;;10.60;;
46731;SDS011;32477;51.474;5.696;2024-02-26T11:40:15;16.70;;;9.60;;
46731;SDS011;32477;51.474;5.696;2024-02-26T11:42:43;16.88;;;10.55;;
46731;SDS011;32477;51.474;5.696;2024-02-26T11:45:38;16.95;;;9.50;;
46731;SDS011;32477;51.474;5.696;2024-02-26T11:48:05;16.95;;;9.82;;
46731;SDS011;32477;51.474;5.696;2024-02-26T11:50:54;17.00;;;9.77;;
46731;SDS011;32477;51.474;5.696;2024-02-26T11:53:24;17.85;;;10.30;;
46731;SDS011;32477;51.474;5.696;2024-02-26T11:59:52;19.42;;;10.95;;
46731;SDS011;32477;51.474;5.696;2024-02-26T12:02:02;21.80;;;11.35;;
46731;SDS011;32477;51.474;5.696;2024-02-26T12:04:29;19.15;;;9.93;;
46731;SDS011;32477;51.474;5.696;2024-02-26T12:06:56;16.92;;;11.10;;
46731;SDS011;32477;51.474;5.696;2024-02-26T12:09:31;22.95;;;11.32;;
46731;SDS011;32477;51.474;5.696;2024-02-26T12:11:57;23.02;;;11.82;;
46731;SDS011;32477;51.474;5.696;2024-02-26T12:14:26;22.85;;;13.07;;
46731;SDS011;32477;51.474;5.696;2024-02-26T12:16:52;22.88;;;11.80;;
46731;SDS011;32477;51.474;5.696;2024-02-26T12:19:18;24.52;;;11.93;;
46731;SDS011;32477;51.474;5.696;2024-02-26T12:21:44;22.65;;;11.07;;
46731;SDS011;32477;51.474;5.696;2024-02-26T12:24:15;26.83;;;12.27;;
46731;SDS011;32477;51.474;5.696;2024-02-26T12:26:43;19.83;;;10.98;;
46731;SDS011;32477;51.474;5.696;2024-02-26T12:29:09;23.20;;;11.68;;
46731;SDS011;32477;51.474;5.696;2024-02-26T12:31:36;23.83;;;12.93;;
46731;SDS011;32477;51.474;5.696;2024-02-26T12:34:02;20.50;;;12.00;;
46731;SDS011;32477;51.474;5.696;2024-02-26T12:36:29;22.60;;;11.55;;
46731;SDS011;32477;51.474;5.696;2024-02-26T12:38:54;24.73;;;12.57;;
46731;SDS011;32477;51.474;5.696;2024-02-26T12:41:21;26.55;;;12.48;;
46731;SDS011;32477;51.474;5.696;2024-02-26T12:43:47;30.13;;;14.43;;
46731;SDS011;32477;51.474;5.696;2024-02-26T12:46:13;28.95;;;13.20;;
46731;SDS011;32477;51.474;5.696;2024-02-26T12:48:42;32.70;;;13.07;;
46731;SDS011;32477;51.474;5.696;2024-02-26T12:51:09;25.15;;;13.02;;
46731;SDS011;32477;51.474;5.696;2024-02-26T12:53:35;25.77;;;13.43;;
46731;SDS011;32477;51.474;5.696;2024-02-26T12:56:01;28.15;;;12.35;;
46731;SDS011;32477;51.474;5.696;2024-02-26T12:58:28;27.95;;;14.90;;
46731;SDS011;32477;51.474;5.696;2024-02-26T13:00:55;37.22;;;13.98;;
46731;SDS011;32477;51.474;5.696;2024-02-26T13:03:22;28.98;;;13.45;;
46731;SDS011;32477;51.474;5.696;2024-02-26T13:05:48;32.45;;;14.35;;
46731;SDS011;32477;51.474;5.696;2024-02-26T13:08:18;29.27;;;13.48;;
46731;SDS011;32477;51.474;5.696;2024-02-26T13:10:48;28.67;;;14.25;;
46731;SDS011;32477;51.474;5.696;2024-02-26T13:13:17;32.13;;;14.95;;
46731;SDS011;32477;51.474;5.696;2024-02-26T13:15:43;30.73;;;14.95;;
46731;SDS011;32477;51.474;5.696;2024-02-26T13:18:09;37.15;;;16.45;;
46731;SDS011;32477;51.474;5.696;2024-02-26T13:20:36;36.35;;;15.43;;
46731;SDS011;32477;51.474;5.696;2024-02-26T13:23:05;33.05;;;14.18;;
46731;SDS011;32477;51.474;5.696;2024-02-26T13:25:32;31.88;;;13.98;;
46731;SDS011;32477;51.474;5.696;2024-02-26T13:30:32;32.05;;;14.52;;
46731;SDS011;32477;51.474;5.696;2024-02-26T13:32:57;35.65;;;14.55;;
46731;SDS011;32477;51.474;5.696;2024-02-26T13:35:35;36.47;;;14.38;;
46731;SDS011;32477;51.474;5.696;2024-02-26T13:38:02;31.30;;;13.88;;
46731;SDS011;32477;51.474;5.696;2024-02-26T13:40:28;32.30;;;14.88;;
46731;SDS011;32477;51.474;5.696;2024-02-26T13:42:54;31.48;;;14.43;;
46731;SDS011;32477;51.474;5.696;2024-02-26T13:45:19;31.42;;;13.82;;
46731;SDS011;32477;51.474;5.696;2024-02-26T13:47:45;27.77;;;12.85;;
46731;SDS011;32477;51.474;5.696;2024-02-26T13:50:11;34.08;;;13.52;;
46731;SDS011;32477;51.474;5.696;2024-02-26T13:52:36;33.55;;;13.60;;
46731;SDS011;32477;51.474;5.696;2024-02-26T13:55:02;36.45;;;14.27;;
46731;SDS011;32477;51.474;5.696;2024-02-26T13:57:28;27.52;;;12.82;;
46731;SDS011;32477;51.474;5.696;2024-02-26T13:59:54;26.95;;;13.20;;
46731;SDS011;32477;51.474;5.696;2024-02-26T14:02:20;26.25;;;12.02;;
46731;SDS011;32477;51.474;5.696;2024-02-26T14:04:46;31.02;;;12.50;;
46731;SDS011;32477;51.474;5.696;2024-02-26T14:07:11;28.58;;;12.65;;
46731;SDS011;32477;51.474;5.696;2024-02-26T14:09:37;25.08;;;11.52;;
46731;SDS011;32477;51.474;5.696;2024-02-26T14:12:03;23.00;;;11.38;;
46731;SDS011;32477;51.474;5.696;2024-02-26T14:14:29;21.33;;;11.35;;
46731;SDS011;32477;51.474;5.696;2024-02-26T14:16:58;22.35;;;10.70;;
46731;SDS011;32477;51.474;5.696;2024-02-26T14:19:24;23.23;;;11.70;;
46731;SDS011;32477;51.474;5.696;2024-02-26T14:21:49;24.08;;;10.43;;
46731;SDS011;32477;51.474;5.696;2024-02-26T14:24:15;21.20;;;9.98;;
46731;SDS011;32477;51.474;5.696;2024-02-26T14:26:40;21.88;;;10.10;;
46731;SDS011;32477;51.474;5.696;2024-02-26T14:29:06;25.73;;;9.90;;
46731;SDS011;32477;51.474;5.696;2024-02-26T14:31:32;19.63;;;10.88;;
46731;SDS011;32477;51.474;5.696;2024-02-26T14:33:58;18.63;;;9.48;;
46731;SDS011;32477;51.474;5.696;2024-02-26T14:36:23;22.63;;;10.45;;
46731;SDS011;32477;51.474;5.696;2024-02-26T14:38:49;21.73;;;9.38;;